sensor_id;sensor_type;location;lat;lon;timestamp;pressure;altitude;pressure_sealevel;temperature;humidity
9421;BME280;4749;51.398;5.466;2022-11-15T00:01:09;100661.75;;;9.06;100.00
9421;BME280;4749;51.398;5.466;2022-11-15T00:03:36;100660.03;;;9.08;100.00
9421;BME280;4749;51.398;5.466;2022-11-15T00:06:04;100661.78;;;9.11;100.00
9421;BME280;4749;51.398;5.466;2022-11-15T00:08:32;100656.53;;;9.12;100.00
9421;BME280;4749;51.398;5.466;2022-11-15T00:11:01;100655.66;;;9.15;100.00
9421;BME280;4749;51.398;5.466;2022-11-15T00:13:30;100656.59;;;9.18;100.00
9421;BME280;4749;51.398;5.466;2022-11-15T00:15:59;100661.84;;;9.21;100.00
9421;BME280;4749;51.398;5.466;2022-11-15T00:18:27;100652.22;;;9.23;100.00
9421;BME280;4749;51.398;5.466;2022-11-15T00:20:55;100661.00;;;9.25;100.00
9421;BME280;4749;51.398;5.466;2022-11-15T00:23:23;100656.63;;;9.27;100.00
9421;BME280;4749;51.398;5.466;2022-11-15T00:25:59;100658.38;;;9.30;100.00
9421;BME280;4749;51.398;5.466;2022-11-15T00:28:27;100655.75;;;9.30;100.00
9421;BME280;4749;51.398;5.466;2022-11-15T00:31:01;100656.63;;;9.32;100.00
9421;BME280;4749;51.398;5.466;2022-11-15T00:33:28;100652.28;;;9.34;100.00
9421;BME280;4749;51.398;5.466;2022-11-15T00:36:05;100647.91;;;9.38;100.00
9421;BME280;4749;51.398;5.466;2022-11-15T00:38:34;100647.91;;;9.39;100.00
9421;BME280;4749;51.398;5.466;2022-11-15T00:41:03;100651.41;;;9.41;100.00
9421;BME280;4749;51.398;5.466;2022-11-15T00:43:35;100645.34;;;9.42;100.00
9421;BME280;4749;51.398;5.466;2022-11-15T00:46:03;100646.22;;;9.44;100.00
9421;BME280;4749;51.398;5.466;2022-11-15T00:48:31;100645.34;;;9.44;100.00
9421;BME280;4749;51.398;5.466;2022-11-15T00:50:58;100647.09;;;9.45;100.00
9421;BME280;4749;51.398;5.466;2022-11-15T00:53:25;100635.72;;;9.49;100.00
9421;BME280;4749;51.398;5.466;2022-11-15T00:55:53;100637.47;;;9.50;100.00
9421;BME280;4749;51.398;5.466;2022-11-15T00:58:20;100639.25;;;9.52;100.00
9421;BME280;4749;51.398;5.466;2022-11-15T01:00:47;100633.13;;;9.53;100.00
9421;BME280;4749;51.398;5.466;2022-11-15T01:03:14;100643.63;;;9.56;100.00
9421;BME280;4749;51.398;5.466;2022-11-15T01:05:41;100634.88;;;9.57;100.00
9421;BME280;4749;51.398;5.466;2022-11-15T01:08:15;100638.41;;;9.61;100.00
9421;BME280;4749;51.398;5.466;2022-11-15T01:10:42;100634.91;;;9.64;100.00
9421;BME280;4749;51.398;5.466;2022-11-15T01:13:09;100634.06;;;9.68;100.00
9421;BME280;4749;51.398;5.466;2022-11-15T01:15:40;100630.56;;;9.70;100.00
9421;BME280;4749;51.398;5.466;2022-11-15T01:18:08;100622.66;;;9.73;100.00
9421;BME280;4749;51.398;5.466;2022-11-15T01:20:40;100627.91;;;9.75;100.00
9421;BME280;4749;51.398;5.466;2022-11-15T01:23:09;100624.44;;;9.77;100.00
9421;BME280;4749;51.398;5.466;2022-11-15T01:25:36;100625.31;;;9.81;100.00
9421;BME280;4749;51.398;5.466;2022-11-15T01:28:03;100626.19;;;9.83;100.00
9421;BME280;4749;51.398;5.466;2022-11-15T01:30:30;100622.72;;;9.87;100.00
9421;BME280;4749;51.398;5.466;2022-11-15T01:32:57;100623.63;;;9.92;100.00
9421;BME280;4749;51.398;5.466;2022-11-15T01:35:24;100620.97;;;9.98;100.00
9421;BME280;4749;51.398;5.466;2022-11-15T01:37:51;100620.13;;;10.05;100.00
9421;BME280;4749;51.398;5.466;2022-11-15T01:40:19;100621.00;;;10.10;100.00
9421;BME280;4749;51.398;5.466;2022-11-15T01:42:46;100619.25;;;10.19;100.00
9421;BME280;4749;51.398;5.466;2022-11-15T01:45:15;100622.78;;;10.24;100.00
9421;BME280;4749;51.398;5.466;2022-11-15T01:47:48;100617.53;;;10.28;100.00
9421;BME280;4749;51.398;5.466;2022-11-15T01:50:22;100616.66;;;10.32;100.00
9421;BME280;4749;51.398;5.466;2022-11-15T01:52:50;100617.53;;;10.39;100.00
9421;BME280;4749;51.398;5.466;2022-11-15T01:55:25;100611.41;;;10.41;100.00
9421;BME280;4749;51.398;5.466;2022-11-15T01:57:58;100613.16;;;10.46;100.00
9421;BME280;4749;51.398;5.466;2022-11-15T02:00:26;100615.78;;;10.47;100.00
9421;BME280;4749;51.398;5.466;2022-11-15T02:02:53;100614.91;;;10.53;100.00
9421;BME280;4749;51.398;5.466;2022-11-15T02:05:20;100607.03;;;10.51;100.00
9421;BME280;4749;51.398;5.466;2022-11-15T02:07:48;100605.25;;;10.55;100.00
9421;BME280;4749;51.398;5.466;2022-11-15T02:10:22;100601.75;;;10.59;100.00
9421;BME280;4749;51.398;5.466;2022-11-15T02:12:50;100600.88;;;10.64;100.00
9421;BME280;4749;51.398;5.466;2022-11-15T02:15:18;100603.47;;;10.67;100.00
9421;BME280;4749;51.398;5.466;2022-11-15T02:23:42;100599.97;;;10.79;100.00
9421;BME280;4749;51.398;5.466;2022-11-15T02:26:51;100608.72;;;10.86;100.00
9421;BME280;4749;51.398;5.466;2022-11-15T02:32:48;100603.44;;;10.92;100.00
9421;BME280;4749;51.398;5.466;2022-11-15T02:35:43;100599.94;;;10.96;100.00
9421;BME280;4749;51.398;5.466;2022-11-15T02:44:26;100590.25;;;11.06;100.00
9421;BME280;4749;51.398;5.466;2022-11-15T02:47:06;100584.09;;;11.08;100.00
9421;BME280;4749;51.398;5.466;2022-11-15T02:49:55;100585.88;;;11.11;100.00
9421;BME280;4749;51.398;5.466;2022-11-15T02:52:24;100577.97;;;11.11;100.00
9421;BME280;4749;51.398;5.466;2022-11-15T02:54:57;100578.81;;;11.14;100.00
9421;BME280;4749;51.398;5.466;2022-11-15T02:57:52;100581.44;;;11.16;100.00
9421;BME280;4749;51.398;5.466;2022-11-15T03:00:20;100569.16;;;11.16;100.00
9421;BME280;4749;51.398;5.466;2022-11-15T03:02:59;100563.03;;;11.19;100.00
9421;BME280;4749;51.398;5.466;2022-11-15T03:06:01;100564.75;;;11.21;100.00
9421;BME280;4749;51.398;5.466;2022-11-15T03:08:42;100560.38;;;11.23;100.00
9421;BME280;4749;51.398;5.466;2022-11-15T03:11:17;100559.47;;;11.26;100.00
9421;BME280;4749;51.398;5.466;2022-11-15T03:21:50;100560.31;;;11.36;100.00
9421;BME280;4749;51.398;5.466;2022-11-15T03:24:19;100561.19;;;11.36;100.00
9421;BME280;4749;51.398;5.466;2022-11-15T03:26:53;100551.53;;;11.38;100.00
9421;BME280;4749;51.398;5.466;2022-11-15T03:29:39;100555.03;;;11.40;100.00
9421;BME280;4749;51.398;5.466;2022-11-15T03:32:21;100561.13;;;11.42;100.00
9421;BME280;4749;51.398;5.466;2022-11-15T03:35:21;100559.38;;;11.46;100.00
9421;BME280;4749;51.398;5.466;2022-11-15T03:38:26;100563.75;;;11.47;100.00
9421;BME280;4749;51.398;5.466;2022-11-15T03:41:05;100558.47;;;11.53;100.00
9421;BME280;4749;51.398;5.466;2022-11-15T03:43:49;100559.28;;;11.60;100.00
9421;BME280;4749;51.398;5.466;2022-11-15T03:46:49;100562.78;;;11.60;100.00
9421;BME280;4749;51.398;5.466;2022-11-15T03:49:28;100568.94;;;11.62;100.00
9421;BME280;4749;51.398;5.466;2022-11-15T03:51:58;100565.44;;;11.63;100.00
9421;BME280;4749;51.398;5.466;2022-11-15T03:54:25;100563.69;;;11.62;100.00
9421;BME280;4749;51.398;5.466;2022-11-15T03:56:53;100561.88;;;11.66;100.00
9421;BME280;4749;51.398;5.466;2022-11-15T03:59:20;100558.38;;;11.65;100.00
9421;BME280;4749;51.398;5.466;2022-11-15T04:01:47;100558.38;;;11.65;100.00
9421;BME280;4749;51.398;5.466;2022-11-15T04:04:14;100551.34;;;11.66;100.00
9421;BME280;4749;51.398;5.466;2022-11-15T04:06:41;100559.25;;;11.67;100.00
9421;BME280;4749;51.398;5.466;2022-11-15T04:09:08;100559.28;;;11.64;100.00
9421;BME280;4749;51.398;5.466;2022-11-15T04:11:35;100551.38;;;11.63;100.00
9421;BME280;4749;51.398;5.466;2022-11-15T04:14:02;100558.41;;;11.64;100.00
9421;BME280;4749;51.398;5.466;2022-11-15T04:16:29;100555.78;;;11.62;100.00
9421;BME280;4749;51.398;5.466;2022-11-15T04:18:56;100551.38;;;11.63;100.00
9421;BME280;4749;51.398;5.466;2022-11-15T04:21:42;100554.03;;;11.61;100.00
9421;BME280;4749;51.398;5.466;2022-11-15T04:24:28;100558.44;;;11.61;100.00
9421;BME280;4749;51.398;5.466;2022-11-15T04:26:55;100555.78;;;11.61;100.00
9421;BME280;4749;51.398;5.466;2022-11-15T04:29:22;100554.91;;;11.62;100.00
9421;BME280;4749;51.398;5.466;2022-11-15T04:32:06;100559.28;;;11.63;100.00
9421;BME280;4749;51.398;5.466;2022-11-15T04:34:33;100557.53;;;11.63;100.00
9421;BME280;4749;51.398;5.466;2022-11-15T04:37:01;100556.63;;;11.66;100.00
9421;BME280;4749;51.398;5.466;2022-11-15T04:39:41;100559.28;;;11.64;100.00
9421;BME280;4749;51.398;5.466;2022-11-15T04:42:08;100557.50;;;11.65;100.00
9421;BME280;4749;51.398;5.466;2022-11-15T04:44:36;100561.00;;;11.67;100.00
9421;BME280;4749;51.398;5.466;2022-11-15T04:47:03;100563.63;;;11.67;100.00
9421;BME280;4749;51.398;5.466;2022-11-15T04:49:30;100559.25;;;11.67;100.00
9421;BME280;4749;51.398;5.466;2022-11-15T04:51:57;100559.25;;;11.69;100.00
9421;BME280;4749;51.398;5.466;2022-11-15T04:54:24;100559.25;;;11.69;100.00
9421;BME280;4749;51.398;5.466;2022-11-15T04:56:51;100553.09;;;11.70;100.00
9421;BME280;4749;51.398;5.466;2022-11-15T04:59:27;100560.13;;;11.71;100.00
9421;BME280;4749;51.398;5.466;2022-11-15T05:02:10;100554.84;;;11.71;100.00
9421;BME280;4749;51.398;5.466;2022-11-15T05:04:37;100553.09;;;11.71;100.00
9421;BME280;4749;51.398;5.466;2022-11-15T05:07:04;100555.69;;;11.73;100.00
9421;BME280;4749;51.398;5.466;2022-11-15T05:09:31;100546.94;;;11.72;100.00
9421;BME280;4749;51.398;5.466;2022-11-15T05:11:58;100556.56;;;11.73;100.00
9421;BME280;4749;51.398;5.466;2022-11-15T05:14:25;100555.69;;;11.74;100.00
9421;BME280;4749;51.398;5.466;2022-11-15T05:16:52;100553.94;;;11.75;100.00
9421;BME280;4749;51.398;5.466;2022-11-15T05:19:19;100555.69;;;11.77;100.00
9421;BME280;4749;51.398;5.466;2022-11-15T05:21:47;100547.78;;;11.76;100.00
9421;BME280;4749;51.398;5.466;2022-11-15T05:24:14;100539.00;;;11.75;100.00
9421;BME280;4749;51.398;5.466;2022-11-15T05:26:41;100541.63;;;11.77;100.00
9421;BME280;4749;51.398;5.466;2022-11-15T05:29:09;100533.72;;;11.77;100.00
9421;BME280;4749;51.398;5.466;2022-11-15T05:31:40;100532.84;;;11.78;100.00
9421;BME280;4749;51.398;5.466;2022-11-15T05:34:08;100537.22;;;11.79;100.00
9421;BME280;4749;51.398;5.466;2022-11-15T05:36:38;100534.59;;;11.83;100.00
9421;BME280;4749;51.398;5.466;2022-11-15T05:39:08;100533.72;;;11.81;100.00
9421;BME280;4749;51.398;5.466;2022-11-15T05:41:41;100537.22;;;11.82;100.00
9421;BME280;4749;51.398;5.466;2022-11-15T05:44:12;100538.09;;;11.82;100.00
9421;BME280;4749;51.398;5.466;2022-11-15T05:46:42;100549.50;;;11.83;100.00
9421;BME280;4749;51.398;5.466;2022-11-15T05:49:13;100557.41;;;11.84;100.00
9421;BME280;4749;51.398;5.466;2022-11-15T05:51:44;100556.53;;;11.84;100.00
9421;BME280;4749;51.398;5.466;2022-11-15T05:54:14;100554.78;;;11.84;100.00
9421;BME280;4749;51.398;5.466;2022-11-15T05:56:41;100550.38;;;11.85;100.00
9421;BME280;4749;51.398;5.466;2022-11-15T05:59:09;100556.53;;;11.84;100.00
9421;BME280;4749;51.398;5.466;2022-11-15T06:01:38;100560.91;;;11.85;100.00
9421;BME280;4749;51.398;5.466;2022-11-15T06:04:06;100562.66;;;11.84;100.00
9421;BME280;4749;51.398;5.466;2022-11-15T06:06:33;100560.03;;;11.84;100.00
9421;BME280;4749;51.398;5.466;2022-11-15T06:09:00;100553.00;;;11.85;100.00
9421;BME280;4749;51.398;5.466;2022-11-15T06:11:27;100563.56;;;11.87;100.00
9421;BME280;4749;51.398;5.466;2022-11-15T06:13:55;100560.94;;;11.87;100.00
9421;BME280;4749;51.398;5.466;2022-11-15T06:16:22;100556.53;;;11.87;100.00
9421;BME280;4749;51.398;5.466;2022-11-15T06:18:49;100564.44;;;11.87;100.00
9421;BME280;4749;51.398;5.466;2022-11-15T06:21:16;100568.81;;;11.87;100.00
9421;BME280;4749;51.398;5.466;2022-11-15T06:23:44;100558.28;;;11.87;100.00
9421;BME280;4749;51.398;5.466;2022-11-15T06:26:11;100573.19;;;11.88;100.00
9421;BME280;4749;51.398;5.466;2022-11-15T06:28:38;100563.53;;;11.85;100.00
9421;BME280;4749;51.398;5.466;2022-11-15T06:31:10;100572.34;;;11.84;100.00
9421;BME280;4749;51.398;5.466;2022-11-15T06:33:40;100578.50;;;11.86;100.00
9421;BME280;4749;51.398;5.466;2022-11-15T06:36:10;100571.47;;;11.83;100.00
9421;BME280;4749;51.398;5.466;2022-11-15T06:38:47;100571.47;;;11.82;100.00
9421;BME280;4749;51.398;5.466;2022-11-15T06:41:14;100577.63;;;11.81;100.00
9421;BME280;4749;51.398;5.466;2022-11-15T06:43:41;100572.38;;;11.81;100.00
9421;BME280;4749;51.398;5.466;2022-11-15T06:46:09;100578.53;;;11.80;100.00
9421;BME280;4749;51.398;5.466;2022-11-15T06:48:36;100581.13;;;11.77;100.00
9421;BME280;4749;51.398;5.466;2022-11-15T06:51:04;100575.00;;;11.73;100.00
9421;BME280;4749;51.398;5.466;2022-11-15T06:53:32;100583.81;;;11.71;100.00
9421;BME280;4749;51.398;5.466;2022-11-15T06:56:05;100579.44;;;11.70;100.00
9421;BME280;4749;51.398;5.466;2022-11-15T06:58:33;100586.44;;;11.68;100.00
9421;BME280;4749;51.398;5.466;2022-11-15T07:01:04;100596.97;;;11.68;100.00
9421;BME280;4749;51.398;5.466;2022-11-15T07:03:34;100600.47;;;11.68;100.00
9421;BME280;4749;51.398;5.466;2022-11-15T07:06:02;100593.50;;;11.69;100.00
9421;BME280;4749;51.398;5.466;2022-11-15T07:08:34;100589.94;;;11.68;100.00
9421;BME280;4749;51.398;5.466;2022-11-15T07:11:04;100595.22;;;11.68;100.00
9421;BME280;4749;51.398;5.466;2022-11-15T07:13:33;100596.97;;;11.68;100.00
9421;BME280;4749;51.398;5.466;2022-11-15T07:16:05;100604.88;;;11.68;100.00
9421;BME280;4749;51.398;5.466;2022-11-15T07:18:37;100605.78;;;11.70;100.00
9421;BME280;4749;51.398;5.466;2022-11-15T07:21:10;100613.66;;;11.70;100.00
9421;BME280;4749;51.398;5.466;2022-11-15T07:23:38;100605.75;;;11.71;100.00
9421;BME280;4749;51.398;5.466;2022-11-15T07:26:07;100608.38;;;11.71;100.00
9421;BME280;4749;51.398;5.466;2022-11-15T07:28:35;100601.34;;;11.73;100.00
9421;BME280;4749;51.398;5.466;2022-11-15T07:31:08;100609.22;;;11.76;100.00
9421;BME280;4749;51.398;5.466;2022-11-15T07:33:36;100613.63;;;11.77;100.00
9421;BME280;4749;51.398;5.466;2022-11-15T07:36:05;100619.78;;;11.81;100.00
9421;BME280;4749;51.398;5.466;2022-11-15T07:38:34;100616.25;;;11.82;100.00
9421;BME280;4749;51.398;5.466;2022-11-15T07:41:08;100615.38;;;11.86;100.00
9421;BME280;4749;51.398;5.466;2022-11-15T07:43:35;100610.09;;;11.88;100.00
9421;BME280;4749;51.398;5.466;2022-11-15T07:46:07;100601.31;;;11.84;100.00
9421;BME280;4749;51.398;5.466;2022-11-15T07:48:39;100598.69;;;11.82;100.00
9421;BME280;4749;51.398;5.466;2022-11-15T07:51:13;100597.84;;;11.80;100.00
9421;BME280;4749;51.398;5.466;2022-11-15T07:53:42;100596.97;;;11.80;100.00
9421;BME280;4749;51.398;5.466;2022-11-15T07:56:10;100594.31;;;11.81;100.00
9421;BME280;4749;51.398;5.466;2022-11-15T07:58:37;100596.03;;;11.84;100.00
9421;BME280;4749;51.398;5.466;2022-11-15T08:01:07;100609.19;;;11.89;100.00
9421;BME280;4749;51.398;5.466;2022-11-15T08:03:35;100604.78;;;11.91;100.00
9421;BME280;4749;51.398;5.466;2022-11-15T08:06:02;100610.94;;;11.90;100.00
9421;BME280;4749;51.398;5.466;2022-11-15T08:08:30;100605.69;;;11.87;100.00
9421;BME280;4749;51.398;5.466;2022-11-15T08:11:01;100613.59;;;11.85;100.00
9421;BME280;4749;51.398;5.466;2022-11-15T08:13:29;100620.63;;;11.83;100.00
9421;BME280;4749;51.398;5.466;2022-11-15T08:16:01;100622.38;;;11.79;100.00
9421;BME280;4749;51.398;5.466;2022-11-15T08:18:28;100625.03;;;11.75;100.00
9421;BME280;4749;51.398;5.466;2022-11-15T08:21:00;100618.91;;;11.73;100.00
9421;BME280;4749;51.398;5.466;2022-11-15T08:23:27;100611.88;;;11.73;100.00
9421;BME280;4749;51.398;5.466;2022-11-15T08:26:03;100609.22;;;11.75;100.00
9421;BME280;4749;51.398;5.466;2022-11-15T08:28:33;100615.38;;;11.74;100.00
9421;BME280;4749;51.398;5.466;2022-11-15T08:31:00;100605.72;;;11.79;100.00
9421;BME280;4749;51.398;5.466;2022-11-15T08:33:28;100591.69;;;11.80;100.00
9421;BME280;4749;51.398;5.466;2022-11-15T08:35:57;100588.13;;;11.84;100.00
9421;BME280;4749;51.398;5.466;2022-11-15T08:38:25;100585.44;;;11.92;100.00
9421;BME280;4749;51.398;5.466;2022-11-15T08:40:58;100579.28;;;11.97;100.00
9421;BME280;4749;51.398;5.466;2022-11-15T08:43:27;100588.03;;;12.02;100.00
9421;BME280;4749;51.398;5.466;2022-11-15T08:45:56;100589.72;;;12.11;100.00
9421;BME280;4749;51.398;5.466;2022-11-15T08:48:24;100582.63;;;12.19;100.00
9421;BME280;4749;51.398;5.466;2022-11-15T08:50:55;100570.25;;;12.26;100.00
9421;BME280;4749;51.398;5.466;2022-11-15T08:53:23;100571.97;;;12.31;100.00
9421;BME280;4749;51.398;5.466;2022-11-15T08:55:50;100571.03;;;12.35;100.00
9421;BME280;4749;51.398;5.466;2022-11-15T08:58:17;100578.06;;;12.39;100.00
9421;BME280;4749;51.398;5.466;2022-11-15T09:00:45;100570.09;;;12.43;100.00
9421;BME280;4749;51.398;5.466;2022-11-15T09:03:12;100569.25;;;12.40;100.00
9421;BME280;4749;51.398;5.466;2022-11-15T09:05:39;100565.72;;;12.43;100.00
9421;BME280;4749;51.398;5.466;2022-11-15T09:08:06;100558.69;;;12.42;100.00
9421;BME280;4749;51.398;5.466;2022-11-15T09:10:53;100556.91;;;12.46;100.00
9421;BME280;4749;51.398;5.466;2022-11-15T09:13:21;100553.38;;;12.48;100.00
9421;BME280;4749;51.398;5.466;2022-11-15T09:15:48;100542.78;;;12.54;100.00
9421;BME280;4749;51.398;5.466;2022-11-15T09:18:15;100538.34;;;12.56;100.00
9421;BME280;4749;51.398;5.466;2022-11-15T09:20:42;100535.66;;;12.59;100.00
9421;BME280;4749;51.398;5.466;2022-11-15T09:23:09;100534.72;;;12.65;100.00
9421;BME280;4749;51.398;5.466;2022-11-15T09:25:37;100536.44;;;12.72;100.00
9421;BME280;4749;51.398;5.466;2022-11-15T09:28:07;100533.81;;;12.71;100.00
9421;BME280;4749;51.398;5.466;2022-11-15T09:30:34;100532.84;;;12.76;100.00
9421;BME280;4749;51.398;5.466;2022-11-15T09:33:10;100528.38;;;12.83;100.00
9421;BME280;4749;51.398;5.466;2022-11-15T09:35:38;100526.59;;;12.86;100.00
9421;BME280;4749;51.398;5.466;2022-11-15T09:38:05;100523.94;;;12.85;100.00
9421;BME280;4749;51.398;5.466;2022-11-15T09:40:33;100523.97;;;12.83;100.00
9421;BME280;4749;51.398;5.466;2022-11-15T09:43:46;100523.97;;;12.83;100.00
9421;BME280;4749;51.398;5.466;2022-11-15T09:49:24;100521.41;;;12.76;100.00
9421;BME280;4749;51.398;5.466;2022-11-15T09:51:54;100524.09;;;12.73;100.00
9421;BME280;4749;51.398;5.466;2022-11-15T09:54:23;100510.94;;;12.71;100.00
9421;BME280;4749;51.398;5.466;2022-11-15T09:57:31;100514.47;;;12.68;100.00
9421;BME280;4749;51.398;5.466;2022-11-15T10:00:19;100504.78;;;12.71;100.00
9421;BME280;4749;51.398;5.466;2022-11-15T10:03:31;100507.38;;;12.74;100.00
9421;BME280;4749;51.398;5.466;2022-11-15T10:06:03;100513.50;;;12.76;100.00
9421;BME280;4749;51.398;5.466;2022-11-15T10:11:24;100507.22;;;12.86;100.00
9421;BME280;4749;51.398;5.466;2022-11-15T10:14:16;100500.22;;;12.86;100.00
9421;BME280;4749;51.398;5.466;2022-11-15T10:20:12;100503.50;;;13.02;100.00
9421;BME280;4749;51.398;5.466;2022-11-15T10:22:48;100501.72;;;13.06;100.00
9421;BME280;4749;51.398;5.466;2022-11-15T10:25:31;100503.47;;;13.07;100.00
9421;BME280;4749;51.398;5.466;2022-11-15T10:30:49;100495.47;;;13.13;100.00
9421;BME280;4749;51.398;5.466;2022-11-15T10:33:38;100487.50;;;13.16;100.00
9421;BME280;4749;51.398;5.466;2022-11-15T10:41:20;100484.16;;;13.05;100.00
9421;BME280;4749;51.398;5.466;2022-11-15T10:49:29;100452.50;;;13.03;100.00
9421;BME280;4749;51.398;5.466;2022-11-15T10:54:59;100456.78;;;13.12;100.00
9421;BME280;4749;51.398;5.466;2022-11-15T10:57:36;100455.84;;;13.16;100.00
9421;BME280;4749;51.398;5.466;2022-11-15T11:00:12;100450.50;;;13.22;100.00
9421;BME280;4749;51.398;5.466;2022-11-15T11:05:37;100453.91;;;13.30;100.00
9421;BME280;4749;51.398;5.466;2022-11-15T11:13:39;100431.91;;;13.28;100.00
9421;BME280;4749;51.398;5.466;2022-11-15T11:16:38;100428.44;;;13.26;100.00
9421;BME280;4749;51.398;5.466;2022-11-15T11:20:00;100416.06;;;13.28;100.00
9421;BME280;4749;51.398;5.466;2022-11-15T11:25:34;100401.66;;;13.50;100.00
9421;BME280;4749;51.398;5.466;2022-11-15T11:28:23;100395.41;;;13.56;100.00
9421;BME280;4749;51.398;5.466;2022-11-15T11:40:20;100376.25;;;13.93;100.00
9421;BME280;4749;51.398;5.466;2022-11-15T11:49:08;100358.16;;;14.18;100.00
9421;BME280;4749;51.398;5.466;2022-11-15T11:51:43;100345.75;;;14.23;100.00
9421;BME280;4749;51.398;5.466;2022-11-15T11:57:40;100345.59;;;14.30;100.00
9421;BME280;4749;51.398;5.466;2022-11-15T12:00:24;100336.75;;;14.31;100.00
9421;BME280;4749;51.398;5.466;2022-11-15T12:05:55;100327.00;;;14.33;100.00
9421;BME280;4749;51.398;5.466;2022-11-15T12:08:45;100321.78;;;14.30;100.00
9421;BME280;4749;51.398;5.466;2022-11-15T12:11:35;100314.78;;;14.29;100.00
9421;BME280;4749;51.398;5.466;2022-11-15T12:14:12;100320.06;;;14.28;100.00
9421;BME280;4749;51.398;5.466;2022-11-15T12:16:43;100313.88;;;14.30;100.00
9421;BME280;4749;51.398;5.466;2022-11-15T12:19:10;100313.72;;;14.36;100.00
9421;BME280;4749;51.398;5.466;2022-11-15T12:22:04;100306.53;;;14.43;100.00
9421;BME280;4749;51.398;5.466;2022-11-15T12:24:38;100300.31;;;14.46;100.00
9421;BME280;4749;51.398;5.466;2022-11-15T12:27:37;100288.81;;;14.48;100.00
9421;BME280;4749;51.398;5.466;2022-11-15T12:30:30;100287.97;;;14.48;100.00
9421;BME280;4749;51.398;5.466;2022-11-15T12:33:03;100287.09;;;14.46;100.00
9421;BME280;4749;51.398;5.466;2022-11-15T12:35:41;100278.34;;;14.42;100.00
9421;BME280;4749;51.398;5.466;2022-11-15T12:38:12;100277.63;;;14.34;100.00
9421;BME280;4749;51.398;5.466;2022-11-15T12:41:16;100283.84;;;14.33;100.00
9421;BME280;4749;51.398;5.466;2022-11-15T12:43:46;100272.44;;;14.31;100.00
9421;BME280;4749;51.398;5.466;2022-11-15T13:02:40;100233.34;;;14.45;100.00
9421;BME280;4749;51.398;5.466;2022-11-15T13:12:57;100217.25;;;14.54;100.00
9421;BME280;4749;51.398;5.466;2022-11-15T13:15:35;100209.25;;;14.57;100.00
9421;BME280;4749;51.398;5.466;2022-11-15T13:21:22;100196.91;;;14.58;100.00
9421;BME280;4749;51.398;5.466;2022-11-15T13:24:15;100188.88;;;14.61;100.00
9421;BME280;4749;51.398;5.466;2022-11-15T13:26:43;100188.84;;;14.62;100.00
9421;BME280;4749;51.398;5.466;2022-11-15T13:29:18;100187.09;;;14.61;100.00
9421;BME280;4749;51.398;5.466;2022-11-15T13:31:47;100186.19;;;14.62;100.00
9421;BME280;4749;51.398;5.466;2022-11-15T13:37:28;100166.81;;;14.63;100.00
9421;BME280;4749;51.398;5.466;2022-11-15T13:42:51;100164.44;;;14.51;100.00
9421;BME280;4749;51.398;5.466;2022-11-15T13:45:19;100158.38;;;14.45;100.00
9421;BME280;4749;51.398;5.466;2022-11-15T13:47:56;100147.13;;;14.38;100.00
9421;BME280;4749;51.398;5.466;2022-11-15T13:50:32;100146.34;;;14.33;100.00
9421;BME280;4749;51.398;5.466;2022-11-15T13:53:03;100132.34;;;14.28;100.00
9421;BME280;4749;51.398;5.466;2022-11-15T13:55:34;100137.75;;;14.23;100.00
9421;BME280;4749;51.398;5.466;2022-11-15T13:58:04;100133.38;;;14.21;100.00
9421;BME280;4749;51.398;5.466;2022-11-15T14:00:44;100131.78;;;14.15;100.00
9421;BME280;4749;51.398;5.466;2022-11-15T14:03:30;100123.13;;;14.08;100.00
9421;BME280;4749;51.398;5.466;2022-11-15T14:06:13;100127.53;;;14.08;100.00
9421;BME280;4749;51.398;5.466;2022-11-15T14:11:34;100110.84;;;14.06;100.00
9421;BME280;4749;51.398;5.466;2022-11-15T14:16:44;100107.38;;;14.02;100.00
9421;BME280;4749;51.398;5.466;2022-11-15T14:22:26;100099.63;;;13.96;100.00
9421;BME280;4749;51.398;5.466;2022-11-15T14:25:20;100089.97;;;13.94;100.00
9421;BME280;4749;51.398;5.466;2022-11-15T14:28:08;100091.78;;;13.92;100.00
9421;BME280;4749;51.398;5.466;2022-11-15T14:30:36;100088.38;;;13.88;100.00
9421;BME280;4749;51.398;5.466;2022-11-15T14:33:35;100076.06;;;13.86;100.00
9421;BME280;4749;51.398;5.466;2022-11-15T14:36:10;100057.66;;;13.83;100.00
9421;BME280;4749;51.398;5.466;2022-11-15T14:38:38;100059.47;;;13.80;100.00
9421;BME280;4749;51.398;5.466;2022-11-15T14:41:09;100062.06;;;13.82;100.00
9421;BME280;4749;51.398;5.466;2022-11-15T14:43:38;100060.38;;;13.79;100.00
9421;BME280;4749;51.398;5.466;2022-11-15T14:46:05;100059.53;;;13.77;100.00
9421;BME280;4749;51.398;5.466;2022-11-15T14:48:32;100046.44;;;13.73;100.00
9421;BME280;4749;51.398;5.466;2022-11-15T14:51:00;100048.25;;;13.71;100.00
9421;BME280;4749;51.398;5.466;2022-11-15T14:53:27;100037.78;;;13.66;100.00
9421;BME280;4749;51.398;5.466;2022-11-15T14:55:54;100021.09;;;13.64;100.00
9421;BME280;4749;51.398;5.466;2022-11-15T14:58:21;100027.25;;;13.65;100.00
9421;BME280;4749;51.398;5.466;2022-11-15T15:00:48;100022.00;;;13.63;100.00
9421;BME280;4749;51.398;5.466;2022-11-15T15:03:15;100019.41;;;13.60;100.00
9421;BME280;4749;51.398;5.466;2022-11-15T15:05:43;100015.91;;;13.60;100.00
9421;BME280;4749;51.398;5.466;2022-11-15T15:08:11;100015.09;;;13.58;100.00
9421;BME280;4749;51.398;5.466;2022-11-15T15:10:44;100005.47;;;13.55;100.00
9421;BME280;4749;51.398;5.466;2022-11-15T15:13:21;100006.38;;;13.52;100.00
9421;BME280;4749;51.398;5.466;2022-11-15T15:15:50;99995.88;;;13.51;100.00
9421;BME280;4749;51.398;5.466;2022-11-15T15:18:19;99991.56;;;13.47;100.00
9421;BME280;4749;51.398;5.466;2022-11-15T15:20:57;99991.56;;;13.47;100.00
9421;BME280;4749;51.398;5.466;2022-11-15T15:23:27;99977.50;;;13.45;100.00
9421;BME280;4749;51.398;5.466;2022-11-15T15:25:57;99984.59;;;13.43;100.00
9421;BME280;4749;51.398;5.466;2022-11-15T15:28:25;99980.28;;;13.40;100.00
9421;BME280;4749;51.398;5.466;2022-11-15T15:30:59;99975.06;;;13.37;100.00
9421;BME280;4749;51.398;5.466;2022-11-15T15:33:26;99976.00;;;13.35;100.00
9421;BME280;4749;51.398;5.466;2022-11-15T15:35:54;99971.56;;;13.35;100.00